Lafontaine, Canada
Current Conditions -  °F | °C
As of 1:00 PM on Thursday 30 Oct 2014 (Local Time) from CYMX Reporting Station
Broken Clouds Broken Clouds  
Wind Chill: 42°   Ceiling: 4100
Heat Index: 46°   Visibility: 45mi
Dew Point: 30°   Wind: 8mph
Humidity: 53%   Direction: 260°W
Pressure: 29.97"   Gusts: NA
Location:  45.8°N, 74.02°W
Report Text: CYMX 301700Z 26007KT 230V340 45SM BKN041 BKN160 08/M01 A2997 RMK SC6AC1 SLP152
Loading
Personal Weather Stations






























Interactive Weather Map
Tropical Storm Tracking
New forecast layout! Learn more

10-Day Weather Forecast

Advertisements
Track Severe Weather on mobile